• Join FlightAware (Why Join?)
  • Login
  • US Flag 
08:31AM EDT


 

Airport Tracker/Info


-or-


 

Live Flight TrackerFlight Track Log ✈ ASQ4237 ✈ 17-May-2013 ✈ KCHS - KEWR

Flight Track Log - Related Links

Times and Time Zones

All times are in EDT time to prevent confusion due to time zone crossing. See the ASQ4237 flight status page for this flight to view local times or setup timezone preferences in your user account.

Time Position Orientation Groundspeed Altitude Reporting Facility
EDT Latitude Longitude Course Direction KTS MPH feet Rate Location/Type
10:26AM 32.8558 -80.0017 13° North 191 220 3,700  Level Jacksonville Center
10:27AM 32.9092 -79.9606 33° Northeast 143 165 5,700 2,280 Climbing Jacksonville Center
10:28AM 33.2379 -79.9291 North  Level FlightAware Approximate
10:28AM 32.9794 -79.9311 19° North 204 235 8,300  Level Jacksonville Center
10:29AM 33.3266 -79.9034 23° Northeast  Level FlightAware Approximate
10:29AM 33.0589 -79.9358 357° North 236 272 10,300  Level Jacksonville Center
10:30AM 33.4145 -79.8738 North  Level FlightAware Approximate
10:30AM 33.1467 -79.9378 359° North 276 318 11,600  Level Jacksonville Center
10:31AM 33.5043 -79.8512 13° North  Level FlightAware Approximate
10:31AM 33.2486 -79.9344 North 326 375 13,100  Level Jacksonville Center
10:32AM 33.3461 -79.9064 14° North 349 402 15,000 1,800 Climbing Jacksonville Center
10:33AM 33.4478 -79.8806 12° North 363 418 16,800 1,500 Climbing Jacksonville Center
10:34AM 33.5514 -79.8519 13° North 368 423 18,100 1,380 Climbing Jacksonville Center
10:35AM 33.6531 -79.8236 13° North 373 429 19,600 1,500 Climbing Jacksonville Center
10:36AM 33.7567 -79.7950 13° North 373 429 21,100 1,500 Climbing Jacksonville Center
10:37AM 33.8622 -79.7639 14° North 373 429 22,700 1,500 Climbing Jacksonville Center
10:38AM 33.9658 -79.7350 13° North 373 429 24,200 1,500 Climbing Jacksonville Center
10:39AM 34.0672 -79.7039 14° North 373 429 25,800 1,560 Climbing Jacksonville Center
10:40AM 34.1708 -79.6750 13° North 373 429 27,400 1,560 Climbing Jacksonville Center
10:41AM 34.2664 -79.6564 North 366 421 29,000 1,080 Climbing Jacksonville Center
10:43AM 34.4911 -79.6436 North 359 413 31,000 600 Climbing Washington Center
10:44AM 34.6022 -79.6317 North 380 437 31,000  Level Washington Center
10:45AM 34.7214 -79.6272 North 406 467 31,000  Level Washington Center
10:46AM 34.8447 -79.6208 North 427 491 31,000  Level Washington Center
10:47AM 34.9658 -79.6142 North 432 497 31,000 360 Level Washington Center
10:48AM 35.0894 -79.6025 North 438 504 31,800 840 Climbing Washington Center
10:49AM 35.2053 -79.5703 13° North 443 510 32,800 960 Climbing Washington Center
10:50AM 35.3078 -79.4964 30° Northeast 417 480 33,800 960 Climbing Washington Center
10:51AM 35.4189 -79.4178 30° Northeast 417 480 34,800 600 Climbing Washington Center
10:52AM 35.5128 -79.3508 30° Northeast 424 488 35,000 60 Climbing Washington Center
10:53AM 35.6239 -79.2667 32° Northeast 433 498 35,000  Level Washington Center
10:54AM 35.7283 -79.1919 30° Northeast 428 493 35,000  Level Washington Center
10:55AM 35.8331 -79.1147 31° Northeast 428 493 35,000  Level Washington Center
10:56AM 35.9375 -79.0375 31° Northeast 434 499 35,000  Level Washington Center
10:57AM 36.0419 -78.9622 30° Northeast 434 499 35,000  Level Washington Center
10:58AM 36.1464 -78.8844 31° Northeast 434 499 35,000  Level Washington Center
10:59AM 36.2508 -78.8039 32° Northeast 434 499 35,000  Level Washington Center
11:00AM 36.3550 -78.7281 30° Northeast 434 499 35,000 420 Level Washington Center
11:01AM 36.4528 -78.6519 32° Northeast 427 491 35,900 480 Climbing Washington Center
11:02AM 36.5569 -78.5758 30° Northeast 422 486 36,000  Climbing Washington Center
11:03AM 36.6589 -78.5022 30° Northeast 422 486 36,000  Level Washington Center
11:04AM 36.7506 -78.4253 34° Northeast 427 491 36,000  Level Washington Center
11:05AM 36.8506 -78.3483 32° Northeast 427 491 36,000  Level Washington Center
11:06AM 36.9544 -78.2689 31° Northeast 427 491 36,000  Level Washington Center
11:07AM 37.0669 -78.1869 30° Northeast 420 483 36,000  Level Washington Center
11:08AM 37.1600 -78.1250 28° Northeast 420 483 36,000  Level Washington Center
11:09AM 37.2681 -78.0372 33° Northeast 420 483 36,000  Level Washington Center
11:10AM 37.3572 -77.9669 32° Northeast 420 483 36,000  Level Washington Center
11:11AM 37.4672 -77.8814 32° Northeast 425 489 36,000  Level Washington Center
11:12AM 37.5583 -77.8056 33° Northeast 425 489 36,000  Level Washington Center
11:13AM 37.6644 -77.7089 36° Northeast 425 489 36,000  Level Washington Center
11:14AM 37.7514 -77.6300 36° Northeast 425 489 36,000  Level Washington Center
11:15AM 37.8553 -77.5300 37° Northeast 425 489 36,000  Level Washington Center
11:16AM 37.9419 -77.4508 36° Northeast 425 489 36,000  Level Washington Center
11:17AM 38.0369 -77.3686 34° Northeast 419 482 36,000  Level Washington Center
11:18AM 38.1300 -77.2811 36° Northeast 414 476 36,000  Level Washington Center
11:19AM 38.2250 -77.1908 37° Northeast 414 476 36,000  Level Washington Center
11:20AM 38.3242 -77.1028 35° Northeast 434 499 36,000  Level Washington Center
11:21AM 38.4192 -77.0147 36° Northeast 419 482 36,000  Level Washington Center
11:22AM 38.5142 -76.9236 37° Northeast 414 476 36,000  Level Washington Center
11:23AM 38.6089 -76.8350 36° Northeast 414 476 36,000  Level Washington Center
11:24AM 38.7036 -76.7408 38° Northeast 420 483 36,000  Level Washington Center
11:25AM 38.7942 -76.6436 40° Northeast 420 483 36,000  Level Washington Center
11:26AM 38.8803 -76.5436 42° Northeast 420 483 36,000 -960 Level Washington Center
11:27AM 38.9708 -76.4381 42° Northeast 420 483 34,200 -2,280 Descending Washington Center
11:28AM 39.0569 -76.3347 43° Northeast 420 483 31,400 -2,880 Descending Washington Center
11:29AM 39.1492 -76.2286 42° Northeast 425 489 28,600 -2,280 Descending Washington Center
11:30AM 39.2561 -76.1089 41° Northeast 441 507 27,000 -840 Descending Washington Center
11:31AM 39.3503 -75.9969 43° Northeast 447 514 27,000  Level Washington Center
11:32AM 39.4464 -75.8844 42° Northeast 453 521 27,000 -120 Level Washington Center
11:33AM 39.5447 -75.7692 42° Northeast 459 528 26,800 -1,260 Descending Washington Center
11:34AM 39.6406 -75.6561 42° Northeast 464 534 24,600 -2,640 Descending Washington Center
11:35AM 39.7364 -75.5403 43° Northeast 464 534 21,600 -2,940 Descending Washington Center
11:36AM 39.8281 -75.4294 43° Northeast 458 527 18,600 -2,880 Descending Washington Center
11:37AM 39.9111 -75.3292 43° Northeast 434 499 15,900 -2,820 Descending Washington Center
11:38AM 39.9922 -75.2286 44° Northeast 407 468 13,100 -2,460 Descending Washington Center
11:39AM 40.0689 -75.1361 43° Northeast 384 442 11,100 -1,140 Descending Washington Center
11:40AM 40.1500 -75.0333 44° Northeast 303 349 10,600 -1,020 Descending New York TRACON
11:41AM 40.2167 -74.9500 44° Northeast 283 326 8,900 -1,260 Descending New York TRACON
11:42AM 40.2667 -74.8833 45° Northeast 280 322 8,100 -600 Descending New York TRACON
11:43AM 40.3167 -74.8167 45° Northeast 269 310 7,800 -660 Descending New York TRACON
11:44AM 40.3500 -74.7333 62° Northeast 257 296 6,800 -1,020 Descending New York TRACON
11:45AM 40.3667 -74.6333 78° East 249 287 5,700 -900 Descending New York TRACON
11:46AM 40.3667 -74.5667 90° East 235 270 5,000 -540 Descending New York TRACON
11:47AM 40.3500 -74.4667 102° East 241 277 4,700 -660 Descending New York TRACON
11:48AM 40.3833 -74.4000 57° Northeast 219 252 3,700 -900 Descending New York TRACON
11:49AM 40.4167 -74.3333 57° Northeast 225 259 3,000 -300 Descending New York TRACON
11:50AM 40.4667 -74.3000 27° Northeast 193 222 3,100  Climbing New York TRACON
11:51AM 40.5167 -74.2833 14° North 184 212 3,000 -240 Descending New York TRACON
11:52AM 40.5667 -74.2500 27° Northeast 187 215 2,700 -360 Descending New York TRACON